Time;durP1;ratioP1;P1;durP2;ratioP2;P2;SDS_P1;SDS_P2;PMS_P1;PMS_P2;Temp;Humidity;BMP_temperature;BMP_pressure;BME280_temperature;BME280_humidity;BME280_pressure;Samples;Min_cycle;Max_cycle;Signal;HPM_P1;HPM_P2
2022/05/07 00:00:26;;;;;;;7.67;5.30;;;16.80;55.70;;;;;;5015266;28;20090;-83
2022/05/07 00:02:52;;;;;;;7.10;5.45;;;16.80;55.60;;;;;;5051637;28;20044;-83
2022/05/07 00:05:19;;;;;;;8.17;5.93;;;16.70;55.60;;;;;;5044010;28;20029;-83
2022/05/07 00:07:45;;;;;;;6.90;5.20;;;16.70;55.80;;;;;;5036677;28;20455;-82
2022/05/07 00:10:11;;;;;;;8.13;5.53;;;16.70;56.50;;;;;;5033478;28;20508;-83
2022/05/07 00:12:36;;;;;;;7.93;5.57;;;16.60;55.90;;;;;;5042212;28;20249;-83
2022/05/07 00:15:02;;;;;;;6.63;4.87;;;16.60;56.00;;;;;;5041657;28;20480;-83
2022/05/07 00:20:12;;;;;;;8.23;5.75;;;16.50;56.00;;;;;;5057854;28;20025;-83
2022/05/07 00:22:38;;;;;;;6.77;4.87;;;16.50;56.20;;;;;;5059503;28;20032;-83
2022/05/07 00:25:04;;;;;;;7.17;5.20;;;16.50;56.20;;;;;;5036742;28;20403;-83
2022/05/07 00:27:29;;;;;;;7.72;5.28;;;16.40;56.30;;;;;;5025439;28;20036;-83
2022/05/07 00:29:55;;;;;;;6.83;5.27;;;16.40;56.40;;;;;;5026023;28;20343;-83
2022/05/07 00:32:21;;;;;;;7.82;5.47;;;16.30;56.40;;;;;;5044758;28;20060;-82
2022/05/07 00:34:46;;;;;;;6.60;5.03;;;16.30;57.20;;;;;;5060370;28;20032;-83
2022/05/07 00:37:12;;;;;;;7.00;5.37;;;16.20;56.60;;;;;;5059808;28;20449;-83
2022/05/07 00:39:37;;;;;;;8.45;5.60;;;16.20;56.40;;;;;;5032537;28;20230;-83
2022/05/07 00:42:04;;;;;;;7.70;5.60;;;16.20;56.70;;;;;;5053755;28;20489;-83
2022/05/07 00:44:31;;;;;;;9.35;5.57;;;16.10;56.90;;;;;;5039647;28;20373;-83
2022/05/07 00:47:12;;;;;;;9.57;6.18;;;16.10;56.80;;;;;;5014994;28;20028;-83
2022/05/07 00:49:39;;;;;;;8.40;5.97;;;16.00;57.70;;;;;;5056906;28;20520;-83
2022/05/07 00:52:06;;;;;;;8.47;5.90;;;16.00;57.20;;;;;;5041874;28;20309;-83
2022/05/07 00:54:31;;;;;;;8.13;5.95;;;15.90;57.50;;;;;;5049975;28;20396;-83
2022/05/07 00:56:57;;;;;;;7.82;5.90;;;15.90;57.60;;;;;;5039676;28;20895;-83
2022/05/07 00:59:23;;;;;;;8.90;5.57;;;15.80;57.60;;;;;;5074780;28;20378;-83
2022/05/07 01:01:49;;;;;;;9.73;6.00;;;15.80;57.70;;;;;;5017186;28;20124;-82
2022/05/07 01:04:15;;;;;;;8.25;5.85;;;15.80;57.80;;;;;;5047242;28;20036;-82
2022/05/07 01:06:41;;;;;;;7.73;5.50;;;15.70;57.90;;;;;;5057835;28;20233;-82
2022/05/07 01:09:07;;;;;;;7.67;5.53;;;15.70;58.10;;;;;;5047307;28;20281;-82
2022/05/07 01:11:33;;;;;;;8.52;5.85;;;15.70;58.10;;;;;;5036412;28;20045;-82
2022/05/07 01:13:59;;;;;;;8.18;5.75;;;15.70;58.30;;;;;;5060968;28;20032;-82
2022/05/07 01:16:25;;;;;;;7.87;5.60;;;15.70;58.30;;;;;;5025427;28;20083;-82
2022/05/07 01:18:51;;;;;;;7.10;5.40;;;15.70;58.50;;;;;;5031271;28;20568;-82
2022/05/07 01:21:17;;;;;;;8.55;5.53;;;15.70;58.50;;;;;;5041647;28;20036;-82
2022/05/07 01:23:44;;;;;;;7.00;5.23;;;15.70;58.60;;;;;;5030837;28;20390;-82
2022/05/07 01:26:11;;;;;;;7.28;5.38;;;15.70;58.80;;;;;;5036636;28;20064;-82
2022/05/07 01:28:38;;;;;;;6.88;5.45;;;15.70;58.80;;;;;;5031336;28;20634;-82
2022/05/07 01:31:05;;;;;;;8.00;5.40;;;15.70;58.70;;;;;;5042368;28;20041;-82
2022/05/07 01:33:34;;;;;;;7.72;5.68;;;15.70;58.80;;;;;;5013943;28;20049;-82
2022/05/07 01:36:07;;;;;;;7.70;5.80;;;15.70;59.00;;;;;;5040419;28;20094;-82
2022/05/07 01:38:32;;;;;;;8.25;5.55;;;15.70;59.50;;;;;;5038943;28;20116;-82
2022/05/07 01:40:59;;;;;;;9.15;5.82;;;15.60;59.00;;;;;;5033533;28;20155;-82
2022/05/07 01:43:28;;;;;;;7.25;5.45;;;15.70;59.10;;;;;;5038387;28;20600;-82
2022/05/07 01:45:57;;;;;;;7.47;5.57;;;15.70;59.20;;;;;;5048095;28;20044;-82
2022/05/07 01:48:23;;;;;;;8.50;5.55;;;15.70;59.70;;;;;;5031472;28;20060;-82
2022/05/07 01:50:48;;;;;;;8.07;5.75;;;15.70;59.40;;;;;;5033037;28;20258;-82
2022/05/07 01:53:14;;;;;;;8.27;5.73;;;15.70;59.60;;;;;;5033406;28;20029;-82
2022/05/07 01:55:40;;;;;;;7.57;5.50;;;15.70;59.60;;;;;;5066327;28;21634;-82
2022/05/07 01:58:06;;;;;;;8.27;6.10;;;15.70;59.60;;;;;;5038034;28;20608;-82
2022/05/07 02:00:33;;;;;;;8.75;5.90;;;15.70;59.70;;;;;;5056283;28;20025;-82
2022/05/07 02:02:59;;;;;;;8.00;5.72;;;15.70;59.80;;;;;;5020525;28;20120;-82
2022/05/07 02:05:27;;;;;;;8.10;5.78;;;15.70;59.90;;;;;;5023831;28;20580;-82
2022/05/07 02:07:54;;;;;;;8.90;6.07;;;15.70;60.00;;;;;;5036277;28;20112;-82
2022/05/07 02:10:20;;;;;;;10.13;5.50;;;15.70;60.10;;;;;;5035744;28;20033;-82
2022/05/07 02:12:46;;;;;;;6.95;5.30;;;15.70;60.00;;;;;;5030990;28;20029;-82
2022/05/07 02:15:11;;;;;;;8.18;5.60;;;15.70;60.20;;;;;;5032528;28;20061;-82
2022/05/07 02:17:37;;;;;;;8.00;5.70;;;15.70;60.20;;;;;;5017126;28;20071;-82
2022/05/07 02:20:03;;;;;;;7.43;5.53;;;15.70;60.20;;;;;;5072679;28;20106;-82
2022/05/07 02:22:30;;;;;;;7.47;5.50;;;15.70;60.20;;;;;;5021183;28;20047;-82
2022/05/07 02:24:57;;;;;;;7.55;5.45;;;15.70;60.20;;;;;;5039741;28;20051;-82
2022/05/07 02:27:23;;;;;;;8.63;5.43;;;15.70;60.20;;;;;;5025569;28;20374;-82
2022/05/07 02:29:49;;;;;;;8.23;5.53;;;15.70;60.20;;;;;;5044357;28;20040;-82
2022/05/07 02:32:14;;;;;;;6.97;5.33;;;15.70;61.00;;;;;;5034782;28;20921;-83
2022/05/07 02:34:42;;;;;;;7.57;5.15;;;15.70;60.20;;;;;;5017942;28;20228;-82
2022/05/07 02:37:07;;;;;;;7.17;5.30;;;15.70;60.40;;;;;;5024957;28;20029;-82
2022/05/07 02:39:33;;;;;;;6.85;4.93;;;15.70;60.50;;;;;;5041692;28;20036;-82
2022/05/07 02:44:44;;;;;;;7.20;5.10;;;15.70;60.60;;;;;;5036453;28;20040;-82
2022/05/07 02:47:10;;;;;;;7.00;4.80;;;15.70;60.60;;;;;;5042294;28;20116;-82
2022/05/07 02:49:36;;;;;;;6.55;4.18;;;15.70;60.70;;;;;;5022589;28;20228;-82
2022/05/07 02:52:02;;;;;;;6.10;4.47;;;15.70;60.50;;;;;;5036644;28;20060;-82
2022/05/07 02:54:27;;;;;;;6.30;4.45;;;15.70;60.50;;;;;;5034634;28;20036;-82
2022/05/07 02:56:55;;;;;;;7.27;4.40;;;15.70;60.70;;;;;;5040014;28;20037;-82
2022/05/07 02:59:21;;;;;;;5.78;3.83;;;15.70;61.00;;;;;;5033796;28;20107;-82
2022/05/07 03:01:46;;;;;;;6.60;4.00;;;15.70;60.80;;;;;;5039411;28;20119;-82
2022/05/07 03:04:12;;;;;;;5.50;3.80;;;15.80;60.70;;;;;;5024751;28;20021;-82
2022/05/07 03:06:37;;;;;;;7.10;3.80;;;15.80;60.80;;;;;;5032059;28;20305;-82
2022/05/07 03:09:04;;;;;;;6.13;3.80;;;15.80;60.70;;;;;;5039825;28;20084;-82
2022/05/07 03:11:33;;;;;;;5.60;3.63;;;15.80;60.70;;;;;;5040043;28;20408;-82
2022/05/07 03:13:59;;;;;;;5.43;3.60;;;15.80;60.60;;;;;;5032648;28;20036;-82
2022/05/07 03:16:25;;;;;;;5.75;3.63;;;15.80;60.70;;;;;;5038356;28;20044;-83
2022/05/07 03:18:50;;;;;;;7.00;3.83;;;15.80;60.40;;;;;;5043594;28;20052;-82
2022/05/07 03:21:16;;;;;;;5.05;3.60;;;15.80;60.50;;;;;;5025348;28;20060;-83
2022/05/07 03:23:44;;;;;;;5.03;3.50;;;15.80;60.60;;;;;;5030222;28;20526;-83
2022/05/07 03:26:10;;;;;;;5.50;3.50;;;15.80;60.50;;;;;;5029335;28;20064;-82
2022/05/07 03:28:36;;;;;;;5.60;3.47;;;15.80;60.50;;;;;;5040334;28;20053;-83
2022/05/07 03:31:02;;;;;;;5.17;3.20;;;15.80;61.20;;;;;;5037611;28;20103;-82
2022/05/07 03:33:27;;;;;;;4.73;3.07;;;15.80;60.40;;;;;;5042126;28;20493;-83
2022/05/07 03:35:53;;;;;;;5.37;3.30;;;15.80;60.40;;;;;;5022326;28;20326;-82
2022/05/07 03:38:19;;;;;;;5.23;3.10;;;15.80;60.50;;;;;;5034915;28;20040;-82
2022/05/07 03:40:45;;;;;;;4.22;2.67;;;15.80;60.40;;;;;;5030884;28;20354;-83
2022/05/07 03:43:12;;;;;;;5.10;2.85;;;15.80;60.30;;;;;;5048349;28;20032;-83
2022/05/07 03:45:37;;;;;;;4.50;2.55;;;15.80;60.20;;;;;;5033189;28;20044;-82
2022/05/07 03:48:03;;;;;;;4.53;2.53;;;15.80;60.20;;;;;;5045203;28;20036;-83
2022/05/07 03:50:29;;;;;;;5.00;2.45;;;15.80;60.10;;;;;;5041163;28;20128;-82
2022/05/07 03:55:41;;;;;;;4.13;2.45;;;15.90;60.00;;;;;;5025433;28;20037;-82
2022/05/07 03:58:11;;;;;;;6.35;2.50;;;15.80;59.90;;;;;;5059900;28;20033;-82
2022/05/07 04:00:37;;;;;;;3.87;2.20;;;15.80;59.90;;;;;;5027761;28;20278;-82
2022/05/07 04:03:04;;;;;;;4.65;2.42;;;15.80;59.80;;;;;;5044484;28;20025;-82
2022/05/07 04:05:29;;;;;;;3.65;2.35;;;15.80;59.80;;;;;;5033539;28;20036;-83
2022/05/07 04:07:55;;;;;;;4.23;2.27;;;15.90;59.80;;;;;;5023294;28;20041;-83
2022/05/07 04:10:20;;;;;;;3.90;2.15;;;15.80;59.70;;;;;;5027095;28;20033;-82
2022/05/07 04:12:51;;;;;;;4.57;2.50;;;15.90;59.80;;;;;;5041196;28;20449;-82
2022/05/07 04:15:17;;;;;;;4.13;2.47;;;15.90;60.00;;;;;;5038963;28;20051;-83
2022/05/07 04:17:43;;;;;;;4.82;2.28;;;15.90;59.80;;;;;;5027233;28;20044;-83
2022/05/07 04:20:09;;;;;;;4.07;2.47;;;15.90;59.70;;;;;;5040695;28;20037;-81
2022/05/07 04:22:35;;;;;;;4.20;2.27;;;15.90;59.70;;;;;;5023502;28;20357;-82
2022/05/07 04:25:02;;;;;;;4.93;2.33;;;15.90;59.70;;;;;;5029612;28;20036;-82
2022/05/07 04:27:28;;;;;;;3.47;2.28;;;15.90;59.70;;;;;;5031461;28;20039;-83
2022/05/07 04:29:53;;;;;;;5.70;2.67;;;15.90;59.60;;;;;;5037955;28;20029;-83
2022/05/07 04:32:19;;;;;;;4.50;2.00;;;15.90;59.70;;;;;;5028867;28;20068;-83
2022/05/07 04:34:45;;;;;;;4.23;2.13;;;15.80;59.60;;;;;;5040659;28;20048;-83
2022/05/07 04:37:10;;;;;;;4.00;2.08;;;15.80;59.60;;;;;;5041510;28;20253;-83
2022/05/07 04:39:36;;;;;;;5.37;2.30;;;15.80;59.60;;;;;;5022837;28;20095;-82
2022/05/07 04:42:02;;;;;;;4.03;2.17;;;15.80;59.70;;;;;;5025629;28;20242;-83
2022/05/07 04:44:28;;;;;;;3.92;2.28;;;15.80;59.70;;;;;;5058826;28;20279;-82
2022/05/07 04:46:54;;;;;;;4.50;2.30;;;15.80;59.70;;;;;;5030162;28;20088;-82
2022/05/07 04:49:21;;;;;;;5.25;2.80;;;15.70;59.70;;;;;;5076252;28;20025;-82
2022/05/07 04:51:50;;;;;;;6.17;2.70;;;15.80;59.90;;;;;;5039104;28;20583;-83
2022/05/07 04:54:20;;;;;;;4.80;2.47;;;15.70;59.80;;;;;;5022985;28;20028;-83
2022/05/07 04:56:47;;;;;;;4.45;2.53;;;15.70;60.20;;;;;;5044707;28;20032;-83
2022/05/07 04:59:14;;;;;;;6.07;2.60;;;15.70;60.00;;;;;;5035365;28;20478;-82
2022/05/07 05:01:40;;;;;;;4.85;2.40;;;15.70;60.00;;;;;;5029710;28;20101;-83
2022/05/07 05:04:05;;;;;;;4.60;2.50;;;15.70;60.00;;;;;;5067028;28;20029;-82
2022/05/07 05:06:31;;;;;;;5.93;2.53;;;15.80;60.10;;;;;;5022809;28;20372;-82
2022/05/07 05:08:56;;;;;;;6.00;2.60;;;15.70;60.90;;;;;;5048448;28;20654;-83
2022/05/07 05:11:22;;;;;;;5.53;2.90;;;15.70;60.20;;;;;;5013956;28;20056;-83
2022/05/07 05:13:48;;;;;;;5.63;2.80;;;15.80;60.30;;;;;;5033680;28;20047;-83
2022/05/07 05:16:13;;;;;;;5.67;2.90;;;15.80;60.40;;;;;;5038481;28;20144;-82
2022/05/07 05:18:39;;;;;;;6.88;3.30;;;15.80;60.50;;;;;;5023158;28;20512;-82
2022/05/07 05:21:05;;;;;;;6.05;3.05;;;15.80;60.50;;;;;;5029045;28;20029;-82
2022/05/07 05:23:30;;;;;;;6.47;3.00;;;15.80;60.60;;;;;;5039834;28;20228;-82
2022/05/07 05:25:56;;;;;;;6.28;2.92;;;15.90;60.80;;;;;;5018139;28;20044;-83
2022/05/07 05:28:22;;;;;;;5.83;3.07;;;15.90;60.90;;;;;;5014197;28;20037;-82
2022/05/07 05:30:51;;;;;;;7.38;3.25;;;15.90;60.90;;;;;;5034363;28;20086;-82
2022/05/07 05:33:20;;;;;;;6.38;3.35;;;15.90;60.90;;;;;;5027488;28;20142;-82
2022/05/07 05:35:46;;;;;;;6.60;3.20;;;15.90;61.30;;;;;;5021684;28;20745;-82
2022/05/07 05:38:12;;;;;;;7.25;3.17;;;16.00;61.10;;;;;;5041460;28;20059;-83
2022/05/07 05:40:38;;;;;;;6.75;3.65;;;16.00;61.20;;;;;;5043712;28;20238;-82
2022/05/07 05:43:03;;;;;;;7.40;3.43;;;16.10;61.30;;;;;;5017337;28;20037;-82
2022/05/07 05:45:29;;;;;;;5.97;3.28;;;16.10;61.30;;;;;;5026407;28;20596;-82
2022/05/07 05:47:55;;;;;;;6.60;3.47;;;16.20;61.40;;;;;;5024882;28;20316;-83
2022/05/07 05:50:20;;;;;;;7.53;3.67;;;16.20;61.40;;;;;;5017264;28;20330;-82
2022/05/07 05:52:46;;;;;;;7.97;3.40;;;16.30;61.40;;;;;;5020673;28;20128;-82
2022/05/07 05:55:12;;;;;;;8.25;3.95;;;16.30;61.40;;;;;;5034056;28;20044;-82
2022/05/07 05:57:38;;;;;;;7.40;3.70;;;16.40;61.50;;;;;;5017954;28;20513;-82
2022/05/07 06:00:07;;;;;;;8.10;3.70;;;16.40;61.60;;;;;;5027678;28;20033;-83
2022/05/07 06:02:33;;;;;;;7.18;3.45;;;16.50;61.70;;;;;;5035673;28;20329;-83
2022/05/07 06:04:59;;;;;;;7.00;3.72;;;16.50;61.60;;;;;;5033554;28;20044;-82
2022/05/07 06:07:24;;;;;;;7.60;3.85;;;16.60;61.80;;;;;;5028348;28;20040;-83
2022/05/07 06:09:50;;;;;;;8.50;3.83;;;16.60;61.80;;;;;;5033314;28;20136;-82
2022/05/07 06:12:16;;;;;;;7.10;3.83;;;16.70;61.80;;;;;;5045162;28;20090;-83
2022/05/07 06:14:41;;;;;;;8.93;4.03;;;16.70;61.80;;;;;;5013552;28;20137;-82
2022/05/07 06:17:07;;;;;;;8.18;4.05;;;16.80;61.80;;;;;;5026264;28;20462;-82
2022/05/07 06:19:33;;;;;;;9.17;3.70;;;16.90;61.80;;;;;;5025492;28;20125;-82
2022/05/07 06:21:58;;;;;;;7.43;3.87;;;16.90;61.80;;;;;;5022576;28;20044;-83
2022/05/07 06:29:53;;;;;;;10.57;4.30;;;17.10;61.70;;;;;;5018713;28;20037;-83
2022/05/07 06:32:19;;;;;;;9.40;4.32;;;17.20;61.70;;;;;;5034554;28;20055;-83
2022/05/07 06:34:45;;;;;;;8.15;4.05;;;17.30;61.80;;;;;;5029397;28;20033;-83
2022/05/07 06:37:11;;;;;;;7.25;4.10;;;17.30;61.70;;;;;;5020678;28;20037;-82
2022/05/07 06:39:37;;;;;;;7.77;4.10;;;17.40;61.70;;;;;;5029294;28;20048;-82
2022/05/07 06:42:04;;;;;;;8.43;4.18;;;17.50;61.80;;;;;;5037724;28;20460;-83
2022/05/07 06:44:29;;;;;;;9.85;4.40;;;17.60;61.80;;;;;;5015992;28;20025;-82
2022/05/07 06:46:56;;;;;;;8.73;4.23;;;17.60;61.90;;;;;;5035599;28;20478;-83
2022/05/07 06:49:22;;;;;;;8.23;4.13;;;17.70;61.90;;;;;;5040261;28;20091;-81
2022/05/07 06:51:48;;;;;;;8.55;4.18;;;17.80;61.90;;;;;;5037025;28;20643;-83
2022/05/07 06:54:14;;;;;;;8.13;4.07;;;17.90;62.10;;;;;;5017274;28;20048;-83
2022/05/07 06:56:39;;;;;;;8.80;4.38;;;18.00;62.10;;;;;;5037228;28;20041;-83
2022/05/07 06:59:05;;;;;;;7.53;4.00;;;18.20;61.90;;;;;;5035818;28;20405;-82
2022/05/07 07:01:31;;;;;;;9.52;4.40;;;18.30;61.90;;;;;;5014577;28;20092;-83
2022/05/07 07:03:57;;;;;;;8.70;4.20;;;18.40;61.80;;;;;;5039555;28;20033;-83
2022/05/07 07:06:22;;;;;;;8.00;3.92;;;18.50;61.50;;;;;;5027670;28;20515;-82
2022/05/07 07:08:48;;;;;;;8.35;3.97;;;18.50;61.30;;;;;;5024199;28;20037;-83
2022/05/07 07:11:14;;;;;;;8.77;3.90;;;18.60;61.20;;;;;;5033565;28;20340;-83
2022/05/07 07:13:41;;;;;;;8.90;4.28;;;18.70;61.20;;;;;;5027875;28;20681;-82
2022/05/07 07:16:06;;;;;;;7.93;3.80;;;18.70;61.00;;;;;;5019592;28;20049;-83
2022/05/07 07:18:32;;;;;;;9.20;4.20;;;18.80;60.90;;;;;;5032591;28;20578;-83
2022/05/07 07:20:57;;;;;;;8.87;4.13;;;18.80;60.60;;;;;;5024895;28;20159;-83
2022/05/07 07:23:24;;;;;;;8.57;4.43;;;18.90;60.40;;;;;;5026074;28;20025;-83
2022/05/07 07:25:50;;;;;;;9.50;4.43;;;18.90;61.10;;;;;;5040865;28;20020;-83
2022/05/07 07:28:16;;;;;;;8.97;4.50;;;18.90;60.40;;;;;;5035544;28;20110;-83
2022/05/07 07:30:42;;;;;;;9.20;4.30;;;18.90;60.30;;;;;;5034693;28;20275;-83
2022/05/07 07:33:11;;;;;;;9.98;4.50;;;18.90;60.40;;;;;;5012055;28;20040;-83
2022/05/07 07:35:37;;;;;;;8.27;4.38;;;18.90;60.70;;;;;;5020170;28;20152;-83
2022/05/07 07:38:03;;;;;;;8.17;4.30;;;19.00;61.00;;;;;;5039796;28;20473;-83
2022/05/07 07:40:29;;;;;;;11.00;5.03;;;19.10;61.20;;;;;;5016510;28;20043;-82
2022/05/07 07:42:54;;;;;;;9.93;4.57;;;19.20;61.50;;;;;;5038357;28;20033;-82
2022/05/07 07:48:05;;;;;;;10.13;4.07;;;19.60;61.90;;;;;;5016322;28;20033;-83
2022/05/07 07:50:34;;;;;;;7.22;4.07;;;19.90;62.50;;;;;;5028822;28;20150;-83
2022/05/07 07:53:02;;;;;;;9.27;4.70;;;20.20;63.20;;;;;;5027559;28;20603;-82
2022/05/07 07:55:28;;;;;;;9.38;4.47;;;20.60;63.80;;;;;;5027114;28;20032;-83
2022/05/07 07:57:55;;;;;;;8.90;4.38;;;21.00;63.40;;;;;;5031817;28;20106;-84
2022/05/07 08:00:21;;;;;;;9.15;4.60;;;21.40;62.40;;;;;;5029909;28;20761;-83
2022/05/07 08:03:03;;;;;;;10.10;4.53;;;21.60;60.80;;;;;;5020374;28;20591;-83
2022/05/07 08:05:36;;;;;;;7.97;4.47;;;21.80;59.20;;;;;;5035213;28;20532;-84
2022/05/07 08:13:34;;;;;;;10.48;4.97;;;21.80;58.30;;;;;;5030165;28;20310;-79
2022/05/07 08:16:01;;;;;;;9.40;4.55;;;21.90;58.40;;;;;;5053251;28;20491;-79
2022/05/07 08:18:26;;;;;;;9.57;4.57;;;22.00;58.50;;;;;;5046021;28;20597;-79
2022/05/07 08:20:53;;;;;;;8.75;4.63;;;22.10;58.60;;;;;;5039721;28;20036;-80
2022/05/07 08:23:19;;;;;;;9.48;4.78;;;22.20;58.90;;;;;;5044303;28;20035;-80
2022/05/07 08:25:45;;;;;;;10.13;4.80;;;22.40;59.00;;;;;;5030342;28;20682;-80
2022/05/07 08:28:10;;;;;;;8.68;4.82;;;22.50;58.80;;;;;;5042743;28;20127;-79
2022/05/07 08:30:36;;;;;;;8.87;4.50;;;22.70;59.40;;;;;;5034692;28;20025;-79
2022/05/07 08:33:04;;;;;;;8.47;4.80;;;22.80;58.60;;;;;;5038623;28;20294;-79
2022/05/07 08:35:30;;;;;;;9.23;4.85;;;23.00;58.30;;;;;;5031216;28;20271;-80
2022/05/07 08:37:56;;;;;;;14.23;5.00;;;23.20;58.20;;;;;;5066513;28;20363;-79
2022/05/07 08:40:22;;;;;;;8.30;4.95;;;23.40;58.70;;;;;;5047420;28;20032;-80
2022/05/07 08:42:48;;;;;;;9.30;4.43;;;23.50;57.40;;;;;;5035791;28;20925;-79
2022/05/07 08:45:14;;;;;;;8.95;5.00;;;23.60;57.30;;;;;;5048285;28;20107;-79
2022/05/07 08:47:41;;;;;;;9.45;4.80;;;23.80;58.10;;;;;;5042385;28;20147;-77
2022/05/07 08:50:08;;;;;;;8.15;4.53;;;24.10;58.70;;;;;;5037895;28;20028;-77
2022/05/07 08:52:42;;;;;;;9.07;4.53;;;24.50;59.20;;;;;;5040643;28;20040;-78
2022/05/07 08:55:12;;;;;;;9.32;4.85;;;25.00;59.30;;;;;;5047365;28;20032;-77
2022/05/07 08:57:42;;;;;;;9.70;4.97;;;25.60;59.20;;;;;;5047132;28;20568;-77
2022/05/07 09:00:09;;;;;;;7.32;4.45;;;26.20;58.10;;;;;;5053373;28;20086;-82
2022/05/07 09:02:41;;;;;;;8.40;5.00;;;26.60;57.20;;;;;;5048698;28;20640;-82
2022/05/07 09:05:12;;;;;;;8.67;4.83;;;26.90;55.60;;;;;;5016657;28;20028;-82
2022/05/07 09:07:41;;;;;;;7.82;4.90;;;27.20;55.40;;;;;;5037512;28;20425;-82
2022/05/07 09:10:13;;;;;;;8.68;5.07;;;27.50;55.50;;;;;;5053127;28;20043;-82
2022/05/07 09:12:39;;;;;;;7.97;4.97;;;27.90;54.20;;;;;;5043211;28;20296;-82
2022/05/07 09:15:07;;;;;;;7.97;4.93;;;28.20;54.60;;;;;;5014864;28;20044;-82
2022/05/07 09:17:34;;;;;;;7.00;4.50;;;28.40;52.70;;;;;;5031726;28;20522;-82
2022/05/07 09:20:18;;;;;;;9.43;4.93;;;28.50;51.60;;;;;;5037151;28;20052;-82
2022/05/07 09:22:56;;;;;;;7.93;4.53;;;28.50;48.70;;;;;;5064983;28;20040;-82
2022/05/07 09:25:26;;;;;;;8.07;4.68;;;28.40;48.20;;;;;;5038411;28;20137;-82
2022/05/07 09:27:59;;;;;;;8.40;4.15;;;28.20;48.70;;;;;;5041991;28;20112;-82
2022/05/07 09:30:27;;;;;;;7.20;4.60;;;28.10;49.30;;;;;;5033296;28;20638;-82
2022/05/07 09:32:55;;;;;;;7.45;4.60;;;28.10;49.50;;;;;;5038780;28;20340;-83
2022/05/07 09:38:10;;;;;;;10.98;4.43;;;28.00;48.30;;;;;;5056579;28;20040;-82
2022/05/07 09:40:41;;;;;;;7.60;4.57;;;27.90;49.40;;;;;;5058692;28;20040;-82
2022/05/07 09:43:11;;;;;;;8.23;4.40;;;27.90;48.50;;;;;;5051778;28;20040;-82
2022/05/07 09:45:38;;;;;;;8.02;4.60;;;27.80;48.10;;;;;;5048328;28;20302;-82
2022/05/07 09:48:05;;;;;;;7.35;4.68;;;27.80;48.60;;;;;;5064927;28;20116;-82
2022/05/07 09:58:39;;;;;;;7.43;4.10;;;28.10;49.50;;;;;;5058405;28;20260;-77
2022/05/07 10:01:24;;;;;;;6.68;4.35;;;28.30;49.20;;;;;;5032430;28;20056;-77
2022/05/07 10:04:08;;;;;;;7.53;4.37;;;28.50;48.30;;;;;;5064377;28;20584;-82
2022/05/07 10:06:36;;;;;;;8.20;4.50;;;28.60;46.60;;;;;;5048894;28;20025;-81
2022/05/07 10:09:16;;;;;;;7.85;4.65;;;28.70;48.70;;;;;;5027953;28;20062;-81
2022/05/07 10:11:42;;;;;;;7.53;4.43;;;28.80;47.40;;;;;;5056529;28;20068;-81
2022/05/07 10:14:08;;;;;;;8.77;4.82;;;29.00;48.10;;;;;;5042639;28;20040;-82
2022/05/07 10:16:34;;;;;;;8.70;4.93;;;29.10;48.40;;;;;;5026700;28;20222;-81
2022/05/07 10:19:12;;;;;;;7.38;4.90;;;29.20;46.90;;;;;;5045719;28;20028;-80
2022/05/07 10:21:38;;;;;;;6.13;4.13;;;29.20;45.30;;;;;;5043148;28;20032;-82
2022/05/07 10:24:05;;;;;;;8.30;4.70;;;29.10;46.00;;;;;;5007751;28;20025;-82
2022/05/07 10:26:42;;;;;;;8.20;5.15;;;29.00;45.80;;;;;;5062096;28;20215;-82
2022/05/07 10:29:26;;;;;;;7.60;4.55;;;29.00;46.10;;;;;;5020903;28;20025;-81
2022/05/07 10:32:02;;;;;;;8.97;4.97;;;29.20;46.30;;;;;;5049114;28;20047;-82
2022/05/07 10:34:28;;;;;;;6.70;4.90;;;29.60;47.30;;;;;;5047239;28;20300;-81
2022/05/07 10:37:00;;;;;;;7.38;4.75;;;29.90;48.70;;;;;;5059459;28;20065;-81
2022/05/07 10:39:26;;;;;;;7.70;4.90;;;30.30;47.00;;;;;;5021667;28;20444;-82
2022/05/07 10:41:52;;;;;;;7.80;4.93;;;30.60;47.30;;;;;;5054239;28;20559;-82
2022/05/07 10:44:32;;;;;;;7.37;5.20;;;30.80;46.60;;;;;;5038706;28;20032;-83
2022/05/07 10:47:11;;;;;;;7.95;4.93;;;31.10;44.70;;;;;;5028220;28;20036;-82
2022/05/07 10:50:07;;;;;;;7.90;5.07;;;31.30;44.20;;;;;;5031578;28;20420;-82
2022/05/07 10:52:34;;;;;;;7.78;4.88;;;31.60;43.90;;;;;;5056555;28;20539;-81
2022/05/07 10:55:16;;;;;;;7.00;4.70;;;31.90;45.50;;;;;;5038109;28;20040;-82
2022/05/07 10:57:47;;;;;;;7.75;5.38;;;32.20;43.60;;;;;;5053015;28;20143;-81
2022/05/07 11:00:18;;;;;;;6.40;4.95;;;32.60;44.00;;;;;;5042050;28;20070;-81
2022/05/07 11:02:45;;;;;;;6.72;5.15;;;32.80;44.20;;;;;;5042537;28;20455;-81
2022/05/07 11:05:12;;;;;;;6.50;4.90;;;33.20;43.90;;;;;;5022013;28;20392;-80
2022/05/07 11:07:39;;;;;;;6.97;4.83;;;33.50;43.50;;;;;;5042076;28;20222;-82
2022/05/07 11:10:05;;;;;;;6.72;4.88;;;33.80;43.00;;;;;;5042923;28;20055;-82
2022/05/07 11:12:31;;;;;;;7.55;5.35;;;34.10;42.60;;;;;;5054586;28;20036;-82
2022/05/07 11:14:56;;;;;;;7.40;5.00;;;34.30;41.90;;;;;;5040121;28;20067;-82
2022/05/07 11:17:40;;;;;;;7.17;5.17;;;34.50;41.60;;;;;;5050842;28;20043;-82
2022/05/07 11:20:06;;;;;;;6.53;5.03;;;34.70;39.20;;;;;;5059776;28;20033;-82
2022/05/07 11:22:32;;;;;;;7.35;5.20;;;34.70;40.00;;;;;;5068332;28;20129;-82
2022/05/07 11:25:03;;;;;;;8.57;6.10;;;34.70;39.70;;;;;;5048112;28;20089;-81
2022/05/07 11:27:34;;;;;;;9.45;6.03;;;34.70;38.20;;;;;;5045400;28;20504;-82
2022/05/07 11:30:03;;;;;;;10.35;6.32;;;34.70;39.00;;;;;;5054753;28;20420;-81
2022/05/07 11:32:38;;;;;;;6.85;5.15;;;34.80;39.00;;;;;;5036464;28;20043;-81
2022/05/07 11:35:05;;;;;;;5.83;5.07;;;34.80;36.80;;;;;;5026837;28;20083;-81
2022/05/07 11:37:41;;;;;;;7.15;5.45;;;34.60;37.20;;;;;;5052275;28;20029;-82
2022/05/07 11:40:08;;;;;;;7.00;5.13;;;34.30;35.70;;;;;;5038963;28;20044;-82
2022/05/07 11:42:44;;;;;;;6.70;4.78;;;34.00;36.10;;;;;;5059541;28;20029;-82
2022/05/07 11:45:27;;;;;;;6.50;4.93;;;33.70;36.40;;;;;;5059432;28;20198;-81
2022/05/07 11:47:59;;;;;;;5.13;4.50;;;33.50;37.00;;;;;;5054148;28;20123;-81
2022/05/07 11:50:52;;;;;;;5.95;4.22;;;33.60;38.50;;;;;;5027336;28;20024;-83
2022/05/07 11:53:26;;;;;;;5.22;4.18;;;33.80;37.50;;;;;;5032073;28;20116;-81
2022/05/07 11:55:52;;;;;;;4.65;3.80;;;33.90;38.40;;;;;;5057282;28;20098;-82
2022/05/07 11:58:23;;;;;;;4.40;3.53;;;34.20;38.40;;;;;;5027692;28;20238;-81
2022/05/07 12:00:51;;;;;;;4.00;3.37;;;34.40;37.20;;;;;;5054161;28;20086;-82
2022/05/07 12:03:18;;;;;;;4.55;3.35;;;34.50;37.00;;;;;;5037267;28;20051;-82
2022/05/07 12:05:48;;;;;;;4.10;2.90;;;34.60;35.90;;;;;;5016928;28;20059;-82
2022/05/07 12:08:33;;;;;;;4.13;2.92;;;34.50;34.70;;;;;;5046799;28;20141;-82
2022/05/07 12:10:59;;;;;;;4.70;2.70;;;34.20;34.00;;;;;;5054922;28;20024;-82
2022/05/07 12:13:25;;;;;;;3.43;2.70;;;33.90;34.40;;;;;;5031440;28;20256;-82
2022/05/07 12:18:37;;;;;;;4.60;2.50;;;33.30;33.90;;;;;;5044739;28;20033;-83
2022/05/07 12:21:04;;;;;;;3.03;2.45;;;32.90;33.90;;;;;;5028615;28;20571;-82
2022/05/07 12:31:44;;;;;;;3.65;2.35;;;31.20;34.30;;;;;;5051328;28;20040;-82
2022/05/07 12:34:10;;;;;;;3.95;2.42;;;30.80;34.60;;;;;;5049922;28;20288;-82
2022/05/07 12:36:35;;;;;;;3.20;2.23;;;30.40;35.00;;;;;;5047907;28;20033;-82
2022/05/07 12:39:01;;;;;;;3.50;2.20;;;30.10;35.20;;;;;;5045161;28;20036;-82
2022/05/07 12:41:27;;;;;;;3.70;2.10;;;29.80;35.40;;;;;;5059317;28;20135;-82
2022/05/07 12:43:58;;;;;;;3.33;2.10;;;29.60;35.60;;;;;;5013190;28;20044;-82
2022/05/07 12:46:25;;;;;;;3.67;2.22;;;29.40;36.00;;;;;;5058842;28;20020;-82
2022/05/07 12:48:52;;;;;;;3.17;2.03;;;29.10;36.30;;;;;;5043327;28;20460;-84
2022/05/07 12:51:19;;;;;;;3.10;2.10;;;29.00;36.60;;;;;;5044219;28;20850;-82
2022/05/07 12:53:44;;;;;;;3.30;2.28;;;28.90;36.80;;;;;;5055874;28;20044;-82
2022/05/07 12:56:10;;;;;;;2.90;2.35;;;28.90;37.20;;;;;;5054862;28;20534;-82
2022/05/07 12:58:36;;;;;;;4.10;2.50;;;28.90;37.50;;;;;;5056136;28;20036;-81
2022/05/07 13:01:01;;;;;;;3.75;2.20;;;28.80;37.70;;;;;;5044908;28;20036;-82
2022/05/07 13:03:27;;;;;;;3.63;2.10;;;28.80;37.80;;;;;;5058952;28;20032;-82
2022/05/07 13:05:53;;;;;;;3.63;2.45;;;28.80;37.80;;;;;;5053299;28;20097;-83
2022/05/07 13:08:19;;;;;;;3.77;2.40;;;28.90;38.00;;;;;;5027935;28;20393;-82
2022/05/07 13:10:45;;;;;;;3.95;2.30;;;28.90;37.90;;;;;;5055184;28;20024;-82
2022/05/07 13:13:11;;;;;;;4.30;2.47;;;28.90;38.20;;;;;;5020647;28;21242;-81
2022/05/07 13:15:37;;;;;;;3.07;2.40;;;29.00;38.50;;;;;;5040825;28;20659;-82
2022/05/07 13:18:04;;;;;;;4.40;2.33;;;29.10;38.80;;;;;;5071525;28;20072;-82
2022/05/07 13:20:29;;;;;;;3.58;2.15;;;29.20;39.30;;;;;;5051242;28;20096;-83
2022/05/07 13:22:55;;;;;;;3.97;2.50;;;29.50;39.80;;;;;;5032662;28;20123;-81
2022/05/07 13:25:22;;;;;;;3.23;2.00;;;29.80;40.00;;;;;;5057865;28;20355;-83
2022/05/07 13:27:49;;;;;;;3.42;2.38;;;30.20;40.00;;;;;;5059088;28;20044;-82
2022/05/07 13:30:17;;;;;;;2.47;2.00;;;30.60;40.00;;;;;;5020253;28;20236;-81